createdAt,value
2023-02-21T00:00:00.493Z,3.70
2023-02-21T00:02:45.933Z,3.60
2023-02-21T00:05:31.490Z,3.30
2023-02-21T00:08:16.786Z,3.30
2023-02-21T00:11:01.920Z,3.30
2023-02-21T00:13:47.448Z,3.20
2023-02-21T00:16:36.944Z,3.20
2023-02-21T00:19:22.763Z,3.10
2023-02-21T00:22:08.236Z,3.10
2023-02-21T00:24:53.601Z,3.10
2023-02-21T00:27:39.041Z,3.10
2023-02-21T00:30:25.354Z,3.10
2023-02-21T00:33:10.699Z,3.00
2023-02-21T00:35:56.065Z,3.00
2023-02-21T00:38:41.226Z,2.90
2023-02-21T00:41:26.932Z,2.90
2023-02-21T00:44:12.423Z,3.00
2023-02-21T00:46:57.873Z,2.90
2023-02-21T00:49:43.114Z,2.90
2023-02-21T00:52:28.557Z,2.90
2023-02-21T00:55:13.994Z,2.90
2023-02-21T00:57:59.427Z,2.80
2023-02-21T01:00:45.254Z,2.90
2023-02-21T01:03:30.756Z,2.90
2023-02-21T01:06:15.933Z,2.80
2023-02-21T01:09:05.570Z,2.70
2023-02-21T01:11:51.727Z,2.70
2023-02-21T01:14:37.013Z,2.70
2023-02-21T01:17:22.434Z,2.80
2023-02-21T01:20:07.926Z,2.70
2023-02-21T01:22:53.250Z,2.70
2023-02-21T01:25:39.188Z,2.60
2023-02-21T01:28:24.574Z,2.50
2023-02-21T01:31:09.943Z,2.40
2023-02-21T01:33:59.837Z,2.40
2023-02-21T01:36:45.985Z,2.30
2023-02-21T01:39:33.083Z,2.20
2023-02-21T01:42:18.825Z,2.20
2023-02-21T01:45:06.579Z,2.20
2023-02-21T01:47:52.174Z,2.30
2023-02-21T01:50:47.846Z,2.20
2023-02-21T01:53:40.051Z,2.10
2023-02-21T01:56:25.979Z,2.00
2023-02-21T01:59:14.659Z,1.90
2023-02-21T02:02:04.674Z,1.80
2023-02-21T02:04:52.099Z,1.70
2023-02-21T02:07:38.741Z,1.70
2023-02-21T02:10:28.195Z,1.60
2023-02-21T02:13:13.039Z,1.60
2023-02-21T02:16:02.116Z,1.40
2023-02-21T02:19:12.063Z,1.30
2023-02-21T02:21:42.254Z,1.20
2023-02-21T02:24:19.522Z,1.20
2023-02-21T02:27:07.769Z,1.20
2023-02-21T02:29:50.803Z,1.20
2023-02-21T02:33:05.758Z,1.20
2023-02-21T02:35:42.179Z,1.20
2023-02-21T02:38:27.650Z,1.10
2023-02-21T02:41:11.738Z,1.10
2023-02-21T02:43:45.969Z,1.10
2023-02-21T02:46:28.083Z,1.00
2023-02-21T02:49:10.430Z,0.80
2023-02-21T02:51:37.443Z,0.90
2023-02-21T02:54:05.940Z,1.00
2023-02-21T02:56:33.728Z,1.20
2023-02-21T02:59:08.034Z,1.40
2023-02-21T03:01:51.593Z,1.40
2023-02-21T03:04:33.100Z,1.30
2023-02-21T03:07:35.080Z,1.20
2023-02-21T03:10:12.170Z,0.90
2023-02-21T03:12:49.131Z,0.80
2023-02-21T03:15:42.107Z,0.90
2023-02-21T03:18:27.914Z,1.00
2023-02-21T03:20:57.889Z,1.00
2023-02-21T03:23:28.078Z,1.10
2023-02-21T03:26:01.489Z,1.10
2023-02-21T03:28:30.077Z,1.10
2023-02-21T03:31:00.119Z,1.10
2023-02-21T03:33:28.430Z,1.10
2023-02-21T03:35:55.318Z,1.10
2023-02-21T03:38:22.063Z,1.00
2023-02-21T03:40:49.564Z,0.90
2023-02-21T03:43:16.222Z,0.90
2023-02-21T03:45:53.930Z,0.70
2023-02-21T03:48:31.478Z,0.80
2023-02-21T03:51:04.783Z,0.80
2023-02-21T03:53:35.833Z,0.80
2023-02-21T03:56:03.629Z,0.80
2023-02-21T03:58:43.169Z,0.80
2023-02-21T04:01:09.926Z,0.80
2023-02-21T04:03:36.630Z,0.70
2023-02-21T04:06:04.629Z,0.70
2023-02-21T04:08:32.841Z,0.70
2023-02-21T04:10:59.552Z,0.70
2023-02-21T04:13:30.001Z,0.40
2023-02-21T04:15:57.241Z,0.40
2023-02-21T04:18:25.109Z,0.50
2023-02-21T04:20:53.701Z,0.50
2023-02-21T04:23:22.358Z,0.50
2023-02-21T04:25:49.589Z,0.50
2023-02-21T04:28:23.179Z,0.40
2023-02-21T04:30:49.992Z,0.40
2023-02-21T04:33:16.888Z,0.40
2023-02-21T04:35:44.818Z,0.40
2023-02-21T04:38:20.925Z,0.40
2023-02-21T04:40:47.595Z,0.30
2023-02-21T04:43:14.329Z,0.20
2023-02-21T04:45:41.062Z,0.30
2023-02-21T04:48:07.766Z,0.20
2023-02-21T04:50:34.451Z,0.10
2023-02-21T04:53:01.136Z,0.20
2023-02-21T04:55:27.825Z,0.20
2023-02-21T04:57:54.606Z,0.10
2023-02-21T05:00:21.608Z,0.10
2023-02-21T05:02:48.559Z,0.20
2023-02-21T05:05:15.316Z,0.10
2023-02-21T05:07:42.902Z,0.10
2023-02-21T05:10:10.901Z,0.00
2023-02-21T05:12:39.780Z,0.10
2023-02-21T05:15:07.698Z,0.10
2023-02-21T05:17:34.526Z,0.10
2023-02-21T05:20:01.609Z,0.10
2023-02-21T05:22:28.413Z,-0.10
2023-02-21T05:24:55.074Z,-0.10
2023-02-21T05:27:22.987Z,-0.10
2023-02-21T05:29:51.475Z,-0.10
2023-02-21T05:32:20.413Z,-0.10
2023-02-21T05:34:47.861Z,-0.10
2023-02-21T05:37:15.844Z,-0.20
2023-02-21T05:39:42.891Z,-0.20
2023-02-21T05:42:09.828Z,-0.30
2023-02-21T05:44:36.706Z,-0.30
2023-02-21T05:47:03.439Z,-0.30
2023-02-21T05:49:30.162Z,-0.20
2023-02-21T05:51:56.797Z,-0.20
2023-02-21T05:54:23.556Z,-0.10
2023-02-21T05:56:51.652Z,-0.10
2023-02-21T05:59:20.618Z,-0.10
2023-02-21T06:01:48.601Z,-0.10
2023-02-21T06:04:15.473Z,-0.20
2023-02-21T06:06:42.508Z,-0.20
2023-02-21T06:09:09.525Z,-0.20
2023-02-21T06:11:37.944Z,-0.20
2023-02-21T06:14:07.821Z,-0.30
2023-02-21T06:16:36.166Z,-0.20
2023-02-21T06:19:04.203Z,-0.20
2023-02-21T06:21:30.889Z,-0.20
2023-02-21T06:23:57.615Z,-0.20
2023-02-21T06:26:24.312Z,-0.20
2023-02-21T06:28:51.800Z,-0.10
2023-02-21T06:31:20.484Z,-0.10
2023-02-21T06:33:48.409Z,-0.10
2023-02-21T06:36:18.248Z,-0.10
2023-02-21T06:38:52.947Z,0.00
2023-02-21T06:41:26.131Z,0.00
2023-02-21T06:43:57.449Z,0.00
2023-02-21T06:46:26.896Z,0.10
2023-02-21T06:48:53.903Z,0.20
2023-02-21T06:51:21.096Z,0.20
2023-02-21T06:53:50.336Z,-0.10
2023-02-21T06:56:17.111Z,0.10
2023-02-21T06:58:43.816Z,0.10
2023-02-21T07:01:10.484Z,0.20
2023-02-21T07:03:43.139Z,0.30
2023-02-21T07:06:10.132Z,0.30
2023-02-21T07:08:36.874Z,0.40
2023-02-21T07:11:03.787Z,0.50
2023-02-21T07:13:30.503Z,0.60
2023-02-21T07:15:57.158Z,0.80
2023-02-21T07:18:23.931Z,1.00
2023-02-21T07:20:50.703Z,1.20
2023-02-21T07:23:17.415Z,1.30
2023-02-21T07:25:44.069Z,1.50
2023-02-21T07:28:11.474Z,1.60
2023-02-21T07:30:38.231Z,1.60
2023-02-21T07:33:04.964Z,1.80
2023-02-21T07:35:31.619Z,2.00
2023-02-21T07:37:58.370Z,2.10
2023-02-21T07:40:25.020Z,2.20
2023-02-21T07:42:51.702Z,2.30
2023-02-21T07:45:18.546Z,2.40
2023-02-21T07:47:48.056Z,2.70
2023-02-21T07:50:16.815Z,2.90
2023-02-21T07:52:43.678Z,3.10
2023-02-21T07:55:12.503Z,3.20
2023-02-21T07:57:39.326Z,3.50
2023-02-21T08:00:06.882Z,3.70
2023-02-21T08:02:39.869Z,3.80
2023-02-21T08:05:08.959Z,3.90
2023-02-21T08:07:35.678Z,3.90
2023-02-21T08:10:02.357Z,4.10
2023-02-21T08:12:28.998Z,4.30
2023-02-21T08:14:55.666Z,4.50
2023-02-21T08:17:22.333Z,4.60
2023-02-21T08:19:49.216Z,4.60
2023-02-21T08:22:15.983Z,4.70
2023-02-21T08:24:42.626Z,4.80
2023-02-21T08:27:09.298Z,4.90
2023-02-21T08:29:35.986Z,5.10
2023-02-21T08:32:02.762Z,5.30
2023-02-21T08:34:29.826Z,5.50
2023-02-21T08:36:56.894Z,5.70
2023-02-21T08:39:23.804Z,5.90
2023-02-21T08:41:52.302Z,6.10
2023-02-21T08:44:21.761Z,6.30
2023-02-21T08:46:49.821Z,6.40
2023-02-21T08:49:16.787Z,6.60
2023-02-21T08:51:43.471Z,6.60
2023-02-21T08:54:10.230Z,6.60
2023-02-21T08:56:36.898Z,6.90
2023-02-21T08:59:04.531Z,7.00
2023-02-21T09:01:35.523Z,7.10
2023-02-21T09:04:04.244Z,7.20
2023-02-21T09:06:31.424Z,7.30
2023-02-21T09:08:58.301Z,7.50
2023-02-21T09:11:24.952Z,7.70
2023-02-21T09:13:55.216Z,8.00
2023-02-21T09:16:22.525Z,8.30
2023-02-21T09:18:57.263Z,8.50
2023-02-21T09:21:23.939Z,8.80
2023-02-21T09:23:54.162Z,9.00
2023-02-21T09:26:24.018Z,9.20
2023-02-21T09:28:53.868Z,9.40
2023-02-21T09:31:21.123Z,9.70
2023-02-21T09:33:47.939Z,10.10
2023-02-21T09:36:16.244Z,10.30
2023-02-21T09:38:43.077Z,10.60
2023-02-21T09:41:14.159Z,10.70
2023-02-21T09:43:48.509Z,10.80
2023-02-21T09:46:31.054Z,10.90
2023-02-21T09:48:58.370Z,11.00
2023-02-21T09:51:26.140Z,11.10
2023-02-21T09:53:55.758Z,11.20
2023-02-21T09:56:36.356Z,11.20
2023-02-21T09:59:03.825Z,11.40
2023-02-21T10:02:09.597Z,11.50
2023-02-21T10:04:57.835Z,11.60
2023-02-21T10:07:54.092Z,11.70
2023-02-21T10:10:25.780Z,11.90
2023-02-21T10:12:56.077Z,12.00
2023-02-21T10:15:40.898Z,12.10
2023-02-21T10:18:23.029Z,12.20
2023-02-21T10:20:52.406Z,12.30
2023-02-21T10:23:22.498Z,12.30
2023-02-21T10:25:51.746Z,12.40
2023-02-21T10:28:22.151Z,12.50
2023-02-21T10:30:52.188Z,12.50
2023-02-21T10:33:19.039Z,12.40
2023-02-21T10:35:45.747Z,12.50
2023-02-21T10:38:16.441Z,12.70
2023-02-21T10:40:47.905Z,12.70
2023-02-21T10:43:22.426Z,12.80
2023-02-21T10:46:02.871Z,12.80
2023-02-21T10:48:35.374Z,13.00
2023-02-21T10:51:17.476Z,13.00
2023-02-21T10:53:47.876Z,13.10
2023-02-21T10:56:20.269Z,13.20
2023-02-21T10:58:59.084Z,13.40
2023-02-21T11:01:26.849Z,13.60
2023-02-21T11:04:04.313Z,13.60
2023-02-21T11:06:31.052Z,13.60
2023-02-21T11:08:58.766Z,13.70
2023-02-21T11:11:38.578Z,13.80
2023-02-21T11:14:25.153Z,13.80
2023-02-21T11:17:09.843Z,13.90
2023-02-21T11:20:07.661Z,14.00
2023-02-21T11:22:34.906Z,13.90
2023-02-21T11:25:20.251Z,13.90
2023-02-21T11:28:01.829Z,14.00
2023-02-21T11:30:30.205Z,14.20
2023-02-21T11:32:59.910Z,14.30
2023-02-21T11:35:33.883Z,14.40
2023-02-21T11:38:06.692Z,14.30
2023-02-21T11:40:43.117Z,14.50
2023-02-21T11:43:10.928Z,14.70
2023-02-21T11:45:42.972Z,14.90
2023-02-21T11:48:18.016Z,15.20
2023-02-21T11:50:50.687Z,15.20
2023-02-21T11:53:31.117Z,15.30
2023-02-21T11:56:16.080Z,15.20
2023-02-21T11:58:48.538Z,15.30
2023-02-21T12:01:22.037Z,15.50
2023-02-21T12:04:04.058Z,15.60
2023-02-21T12:06:36.508Z,15.40
2023-02-21T12:09:26.039Z,15.50
2023-02-21T12:12:12.594Z,15.70
2023-02-21T12:15:17.439Z,15.70
2023-02-21T12:18:19.565Z,15.60
2023-02-21T12:21:10.590Z,15.70
2023-02-21T12:23:59.800Z,15.50
2023-02-21T12:26:55.248Z,15.70
2023-02-21T12:30:04.107Z,15.80
2023-02-21T12:32:42.709Z,15.90
2023-02-21T12:35:27.965Z,16.10
2023-02-21T12:38:22.642Z,16.30
2023-02-21T12:41:27.493Z,16.40
2023-02-21T12:44:15.183Z,16.30
2023-02-21T12:47:02.569Z,16.30
2023-02-21T12:49:52.123Z,16.20
2023-02-21T12:52:30.872Z,16.40
2023-02-21T12:55:05.664Z,16.30
2023-02-21T12:57:59.628Z,16.40
2023-02-21T13:00:38.864Z,16.50
2023-02-21T13:03:17.685Z,16.40
2023-02-21T13:05:52.469Z,16.10
2023-02-21T13:08:27.654Z,16.10
2023-02-21T13:11:06.317Z,16.30
2023-02-21T13:13:34.034Z,16.60
2023-02-21T13:16:04.114Z,17.00
2023-02-21T13:18:45.027Z,17.10
2023-02-21T13:21:37.520Z,17.30
2023-02-21T13:24:38.015Z,17.00
2023-02-21T13:27:29.228Z,16.90
2023-02-21T13:30:13.539Z,17.20
2023-02-21T13:32:49.379Z,17.40
2023-02-21T13:35:22.246Z,17.80
2023-02-21T13:37:51.710Z,17.70
2023-02-21T13:40:34.834Z,17.60
2023-02-21T13:43:10.284Z,17.60
2023-02-21T13:45:37.031Z,17.30
2023-02-21T13:48:06.727Z,17.30
2023-02-21T13:50:40.040Z,17.60
2023-02-21T13:53:16.482Z,17.90
2023-02-21T13:56:08.170Z,18.30
2023-02-21T13:58:40.608Z,18.60
2023-02-21T14:01:18.923Z,18.90
2023-02-21T14:03:45.805Z,19.10
2023-02-21T14:06:12.522Z,19.60
2023-02-21T14:08:50.552Z,19.70
2023-02-21T14:11:26.946Z,20.20
2023-02-21T14:14:03.169Z,21.00
2023-02-21T14:16:29.928Z,21.70
2023-02-21T14:19:01.476Z,22.50
2023-02-21T14:24:22.983Z,26.00
2023-02-21T14:26:57.816Z,27.30
2023-02-21T14:29:39.937Z,29.20
2023-02-21T14:32:09.717Z,30.60
2023-02-21T14:34:48.287Z,32.00
2023-02-21T14:37:33.309Z,32.90
2023-02-21T14:40:21.530Z,34.30
2023-02-21T14:43:02.481Z,34.40
2023-02-21T14:45:49.797Z,35.60
2023-02-21T14:48:44.544Z,36.30
2023-02-21T14:51:29.940Z,36.70
2023-02-21T14:54:14.298Z,36.60
2023-02-21T14:57:15.905Z,36.70
2023-02-21T15:00:13.146Z,37.00
2023-02-21T15:03:10.100Z,36.30
2023-02-21T15:05:54.760Z,36.60
2023-02-21T15:08:24.507Z,36.50
2023-02-21T15:10:59.255Z,36.00
2023-02-21T15:13:27.524Z,36.30
2023-02-21T15:16:05.081Z,36.40
2023-02-21T15:18:34.835Z,36.10
2023-02-21T15:21:10.628Z,36.20
2023-02-21T15:23:39.873Z,36.00
2023-02-21T15:26:39.474Z,36.00
2023-02-21T15:29:07.885Z,35.80
2023-02-21T15:31:39.639Z,35.90
2023-02-21T15:34:06.612Z,36.10
2023-02-21T15:36:33.632Z,35.80
2023-02-21T15:39:06.123Z,34.90
2023-02-21T15:41:38.724Z,35.10
2023-02-21T15:44:13.981Z,34.50
2023-02-21T15:46:43.527Z,33.60
2023-02-21T15:49:21.159Z,32.90
2023-02-21T15:51:52.335Z,32.70
2023-02-21T15:54:45.971Z,32.10
2023-02-21T15:57:12.720Z,31.30
2023-02-21T15:59:39.832Z,30.80
2023-02-21T16:02:09.723Z,30.20
2023-02-21T16:04:41.609Z,29.40
2023-02-21T16:07:50.375Z,28.80
2023-02-21T16:18:34.805Z,23.00
2023-02-21T16:21:19.444Z,20.80
2023-02-21T16:23:46.432Z,19.50
2023-02-21T16:26:13.219Z,18.50
2023-02-21T16:28:41.467Z,17.80
2023-02-21T16:31:14.881Z,17.10
2023-02-21T16:33:42.419Z,16.60
2023-02-21T16:36:20.444Z,16.10
2023-02-21T16:38:47.206Z,15.70
2023-02-21T16:41:30.270Z,15.40
2023-02-21T16:43:58.236Z,14.90
2023-02-21T16:46:29.661Z,14.40
2023-02-21T16:48:58.803Z,14.10
2023-02-21T16:51:35.072Z,13.90
2023-02-21T16:54:04.017Z,13.80
2023-02-21T16:56:41.733Z,13.50
2023-02-21T16:59:17.194Z,13.20
2023-02-21T17:01:44.033Z,12.90
2023-02-21T17:04:26.898Z,12.60
2023-02-21T17:06:59.802Z,12.40
2023-02-21T17:09:28.872Z,12.20
2023-02-21T17:11:55.869Z,11.90
2023-02-21T17:14:22.814Z,11.70
2023-02-21T17:16:49.526Z,11.40
2023-02-21T17:19:19.273Z,11.20
2023-02-21T17:21:46.070Z,10.90
2023-02-21T17:24:14.771Z,10.70
2023-02-21T17:26:41.810Z,10.50
2023-02-21T17:29:09.166Z,10.30
2023-02-21T17:31:36.184Z,10.10
2023-02-21T17:34:04.147Z,9.90
2023-02-21T17:36:31.016Z,9.80
2023-02-21T17:38:59.019Z,9.60
2023-02-21T17:41:26.445Z,9.60
2023-02-21T17:43:55.624Z,9.60
2023-02-21T17:46:22.557Z,9.40
2023-02-21T17:48:54.520Z,9.20
2023-02-21T17:51:26.850Z,9.20
2023-02-21T17:53:54.120Z,9.00
2023-02-21T17:56:24.348Z,8.90
2023-02-21T17:58:51.265Z,8.70
2023-02-21T18:01:19.696Z,8.40
2023-02-21T18:03:48.216Z,8.40
2023-02-21T18:06:16.150Z,8.10
2023-02-21T18:08:47.038Z,8.10
2023-02-21T18:11:16.353Z,8.00
2023-02-21T18:13:43.597Z,7.90
2023-02-21T18:16:11.391Z,7.80
2023-02-21T18:18:38.071Z,7.60
2023-02-21T18:21:05.243Z,7.50
2023-02-21T18:23:33.585Z,7.10
2023-02-21T18:26:01.261Z,7.10
2023-02-21T18:28:29.071Z,7.10
2023-02-21T18:31:00.042Z,7.20
2023-02-21T18:33:27.283Z,7.00
2023-02-21T18:35:58.316Z,6.90
2023-02-21T18:38:26.504Z,6.70
2023-02-21T18:41:00.346Z,6.70
2023-02-21T18:43:28.925Z,6.60
2023-02-21T18:45:57.627Z,6.50
2023-02-21T18:48:25.628Z,6.40
2023-02-21T18:50:52.624Z,6.30
2023-02-21T18:53:19.663Z,6.20
2023-02-21T18:55:46.360Z,6.20
2023-02-21T18:58:13.111Z,6.20
2023-02-21T19:00:40.847Z,6.00
2023-02-21T19:03:08.615Z,5.90
2023-02-21T19:05:35.456Z,5.80
2023-02-21T19:08:02.214Z,5.70
2023-02-21T19:10:29.660Z,5.70
2023-02-21T19:13:01.799Z,5.60
2023-02-21T19:15:30.703Z,5.30
2023-02-21T19:17:58.854Z,5.20
2023-02-21T19:20:25.663Z,5.30
2023-02-21T19:22:52.623Z,5.30
2023-02-21T19:25:19.412Z,5.30
2023-02-21T19:27:47.305Z,5.40
2023-02-21T19:30:14.486Z,5.30
2023-02-21T19:32:41.175Z,5.10
2023-02-21T19:35:08.504Z,5.10
2023-02-21T19:37:36.034Z,5.00
2023-02-21T19:40:06.834Z,4.90
2023-02-21T19:42:35.355Z,4.90
2023-02-21T19:45:02.112Z,4.80
2023-02-21T19:47:29.700Z,4.80
2023-02-21T19:49:56.523Z,4.70
2023-02-21T19:52:23.247Z,4.70
2023-02-21T19:54:49.931Z,4.50
2023-02-21T19:57:16.682Z,4.40
2023-02-21T19:59:43.467Z,4.40
2023-02-21T20:02:12.188Z,4.40
2023-02-21T20:04:39.775Z,4.50
2023-02-21T20:07:06.444Z,4.50
2023-02-21T20:09:33.119Z,4.50
2023-02-21T20:11:59.772Z,4.50
2023-02-21T20:14:27.319Z,4.30
2023-02-21T20:16:54.063Z,4.30
2023-02-21T20:19:21.894Z,4.30
2023-02-21T20:21:51.241Z,4.30
2023-02-21T20:24:19.066Z,4.10
2023-02-21T20:26:52.778Z,4.10
2023-02-21T20:29:20.534Z,4.10
2023-02-21T20:31:47.809Z,4.10
2023-02-21T20:34:14.965Z,3.90
2023-02-21T20:36:43.415Z,3.90
2023-02-21T20:39:28.772Z,3.70
2023-02-21T20:41:56.530Z,3.50
2023-02-21T20:44:24.074Z,3.60
2023-02-21T20:46:50.840Z,3.60
2023-02-21T20:49:21.348Z,3.70
2023-02-21T20:51:49.168Z,3.60
2023-02-21T20:54:20.041Z,3.50
2023-02-21T20:56:48.622Z,3.50
2023-02-21T20:59:22.371Z,3.30
2023-02-21T21:01:49.238Z,3.40
2023-02-21T21:04:22.713Z,3.50
2023-02-21T21:06:49.434Z,3.40
2023-02-21T21:09:17.848Z,3.20
2023-02-21T21:11:45.493Z,3.00
2023-02-21T21:14:16.295Z,2.90
2023-02-21T21:16:43.400Z,2.90
2023-02-21T21:19:10.344Z,2.90
2023-02-21T21:21:37.852Z,2.90
2023-02-21T21:24:07.103Z,2.90
2023-02-21T21:26:34.233Z,2.90
2023-02-21T21:29:01.899Z,2.90
2023-02-21T21:31:28.660Z,2.90
2023-02-21T21:33:56.358Z,2.90
2023-02-21T21:36:23.377Z,2.90
2023-02-21T21:38:50.261Z,3.00
2023-02-21T21:41:17.212Z,2.80
2023-02-21T21:43:45.793Z,2.50
2023-02-21T21:46:14.141Z,2.50
2023-02-21T21:48:44.452Z,2.50
2023-02-21T21:51:11.614Z,2.60
2023-02-21T21:53:41.477Z,2.70
2023-02-21T21:56:08.538Z,2.60
2023-02-21T21:58:35.210Z,2.50
2023-02-21T22:01:05.269Z,2.50
2023-02-21T22:03:32.092Z,2.50
2023-02-21T22:06:00.508Z,2.50
2023-02-21T22:08:28.261Z,2.40
2023-02-21T22:10:55.050Z,2.30
2023-02-21T22:13:21.899Z,2.30
2023-02-21T22:15:48.939Z,2.30
2023-02-21T22:18:19.852Z,2.30
2023-02-21T22:20:50.243Z,2.30
2023-02-21T22:23:21.226Z,2.30
2023-02-21T22:25:48.813Z,2.30
2023-02-21T22:28:16.359Z,2.20
2023-02-21T22:30:43.106Z,2.20
2023-02-21T22:33:13.614Z,2.00
2023-02-21T22:35:41.312Z,1.90
2023-02-21T22:38:14.084Z,1.90
2023-02-21T22:40:42.230Z,1.80
2023-02-21T22:43:09.937Z,1.80
2023-02-21T22:45:37.914Z,1.80
2023-02-21T22:48:07.328Z,1.70
2023-02-21T22:50:37.007Z,1.70
2023-02-21T22:53:08.056Z,1.60
2023-02-21T22:55:36.963Z,1.50
2023-02-21T22:58:09.110Z,1.40
2023-02-21T23:00:37.692Z,1.40
2023-02-21T23:03:12.653Z,1.50
2023-02-21T23:05:50.827Z,1.70
2023-02-21T23:08:19.967Z,1.60
2023-02-21T23:10:46.915Z,1.70
2023-02-21T23:13:17.092Z,1.70
2023-02-21T23:15:44.786Z,1.70
2023-02-21T23:18:20.177Z,1.60
2023-02-21T23:20:53.740Z,1.60
2023-02-21T23:23:27.031Z,1.50
2023-02-21T23:25:58.670Z,1.40
2023-02-21T23:28:28.605Z,1.40
2023-02-21T23:30:56.112Z,1.40
2023-02-21T23:33:26.164Z,1.40
2023-02-21T23:35:55.462Z,1.40
2023-02-21T23:38:25.352Z,1.40
2023-02-21T23:40:56.065Z,1.30
2023-02-21T23:43:30.928Z,1.30
2023-02-21T23:45:58.801Z,1.30
2023-02-21T23:48:25.536Z,1.30
2023-02-21T23:50:57.364Z,1.20
2023-02-21T23:53:27.700Z,1.20
2023-02-21T23:56:00.364Z,1.20
2023-02-21T23:58:33.859Z,1.20
